Pagrindinis puslapis
METAR-TAF:

METAR-TAF

Oro uostai :

Jaundė, Kamerūnas

platuma: 03-50N, ilguma: 011-31E, Aukštis: 751 m

Dabartinis oras

Ataskaita buvo paskelbta 29 minutes, ne 05:00 UTC
Ramus vėjas
Temperatūra 22°C
Drėgmė 100%
Slėgis 1016 hPa
Matomumas 10 km arba daugiau
Su prošvaistėmis ne aukštis 600 ft

METAR: FKYS 060500Z 00000KT 9999 BKN006 22/22 Q1016 NOSIG

Laikas: 06:29 (05:29 UTC)

Prognozė

Ataskaita buvo paskelbta 6 valandos ir 29 minutes, ne 23:00 UTC
Prognozė galioja nuo 06 metu 00 UTC su 06 metu 24 UTC
Vėjas 2 kt nuo kintamojo kryptimis
Matomumas 10 km arba daugiau
Su prošvaistėmis ne aukštis 600 ft
Laikinai
nuo 06 metu 04 UTC su 06 metu 06 UTC
Matomumas: 2000 m
rūkana
Tapsmas
nuo 06 metu 08 UTC su 06 metu 10 UTC
Su prošvaistėmis ne aukštis 2000 ft

TAF: FKYS 052300Z 0600/0624 VRB02KT 9999 BKN006 TEMPO 0604/0606 2000 BR BECMG 0608/0610 BKN020

Orai ataskaitas ir orų prognozės (METAR, TAF).

turimą stotys yra geltonos ir raudonos taškus žemėlapyje.

Perkelti pele per norėdami pamatyti stoties vardą.

Tada spustelėkite, norėdami matyti oro stebėjimo ir prognozės.

Norėdami pakeisti žemėlapį: spustelėkite ant žalios mygtukų su juodo kryžiaus žemyn,; žalią mygtuką su brūkšneliu, jei norite nutolinti; arba žalių rodyklių gretimoms žemėlapius.


METAR-TAF: